createdAt,value
2018-02-23T00:01:11.667Z,88.80
2018-02-23T00:03:39.871Z,89.10
2018-02-23T00:06:07.378Z,89.10
2018-02-23T00:08:34.850Z,89.30
2018-02-23T00:11:02.358Z,90.20
2018-02-23T00:13:30.609Z,89.90
2018-02-23T00:15:58.098Z,89.80
2018-02-23T00:18:25.574Z,89.40
2018-02-23T00:20:53.843Z,90.10
2018-02-23T00:23:21.323Z,90.00
2018-02-23T00:25:48.835Z,90.00
2018-02-23T00:28:16.320Z,90.00
2018-02-23T00:30:43.820Z,90.00
2018-02-23T00:33:11.309Z,90.20
2018-02-23T00:35:38.809Z,90.20
2018-02-23T00:38:06.291Z,90.50
2018-02-23T00:40:33.787Z,90.50
2018-02-23T00:43:01.263Z,90.50
2018-02-23T00:45:28.768Z,90.50
2018-02-23T00:47:57.015Z,90.60
2018-02-23T00:50:24.508Z,90.50
2018-02-23T00:52:51.995Z,90.70
2018-02-23T00:55:20.265Z,90.80
2018-02-23T00:57:47.741Z,90.70
2018-02-23T01:00:15.294Z,90.70
2018-02-23T01:02:42.727Z,90.60
2018-02-23T01:05:10.987Z,90.70
2018-02-23T01:07:39.249Z,91.00
2018-02-23T01:10:06.755Z,91.00
2018-02-23T01:12:34.249Z,91.00
2018-02-23T01:15:02.520Z,91.10
2018-02-23T01:17:30.015Z,91.10
2018-02-23T01:19:57.515Z,91.20
2018-02-23T01:22:24.987Z,91.40
2018-02-23T01:24:53.462Z,91.40
2018-02-23T01:27:20.934Z,91.50
2018-02-23T01:29:48.438Z,91.50
2018-02-23T01:32:16.685Z,91.60
2018-02-23T01:34:44.172Z,91.50
2018-02-23T01:37:11.680Z,91.70
2018-02-23T01:39:39.923Z,91.90
2018-02-23T01:42:07.419Z,91.90
2018-02-23T01:44:34.888Z,91.90
2018-02-23T01:47:13.036Z,91.90
2018-02-23T01:49:40.522Z,92.30
2018-02-23T01:52:08.023Z,92.10
2018-02-23T01:54:35.505Z,92.30
2018-02-23T01:57:02.999Z,92.30
2018-02-23T01:59:31.244Z,92.20
2018-02-23T02:01:58.739Z,92.20
2018-02-23T02:04:26.220Z,92.10
2018-02-23T02:06:53.728Z,92.20
2018-02-23T02:09:21.207Z,92.20
2018-02-23T02:11:48.744Z,92.20
2018-02-23T02:14:16.987Z,92.20
2018-02-23T02:16:44.483Z,92.20
2018-02-23T02:19:11.962Z,92.20
2018-02-23T02:21:40.219Z,92.40
2018-02-23T02:24:07.704Z,92.40
2018-02-23T02:26:35.221Z,92.40
2018-02-23T02:29:02.708Z,92.50
2018-02-23T02:31:30.203Z,92.80
2018-02-23T02:33:57.692Z,92.80
2018-02-23T02:36:25.210Z,92.50
2018-02-23T02:38:52.697Z,92.50
2018-02-23T02:41:20.204Z,92.60
2018-02-23T02:43:48.465Z,92.90
2018-02-23T02:46:15.976Z,92.90
2018-02-23T02:48:44.228Z,92.90
2018-02-23T02:51:11.737Z,92.90
2018-02-23T02:53:39.993Z,92.90
2018-02-23T02:56:07.505Z,92.90
2018-02-23T02:58:35.002Z,92.90
2018-02-23T03:01:02.513Z,93.00
2018-02-23T03:03:30.005Z,93.10
2018-02-23T03:06:07.962Z,93.00
2018-02-23T03:08:35.458Z,93.00
2018-02-23T03:11:02.972Z,92.90
2018-02-23T03:13:31.227Z,93.30
2018-02-23T03:15:58.740Z,93.20
2018-02-23T03:18:26.229Z,93.30
2018-02-23T03:20:53.737Z,93.20
2018-02-23T03:23:21.226Z,93.50
2018-02-23T03:25:49.504Z,93.50
2018-02-23T03:28:16.994Z,93.50
2018-02-23T03:30:45.282Z,93.80
2018-02-23T03:33:12.778Z,93.70
2018-02-23T03:35:40.292Z,93.90
2018-02-23T03:38:07.788Z,93.60
2018-02-23T03:40:36.074Z,94.00
2018-02-23T03:43:04.330Z,94.10
2018-02-23T03:45:31.839Z,94.10
2018-02-23T03:48:00.102Z,94.00
2018-02-23T03:50:27.621Z,94.00
2018-02-23T03:52:55.113Z,94.00
2018-02-23T03:55:22.627Z,94.40
2018-02-23T03:57:50.880Z,94.20
2018-02-23T04:00:21.844Z,94.20
2018-02-23T04:02:49.341Z,94.20
2018-02-23T04:05:17.621Z,94.50
2018-02-23T04:07:45.900Z,94.90
2018-02-23T04:10:13.392Z,94.60
2018-02-23T04:12:41.669Z,94.40
2018-02-23T04:15:09.170Z,94.40
2018-02-23T04:17:36.693Z,94.40
2018-02-23T04:20:04.192Z,94.40
2018-02-23T04:22:32.467Z,94.60
2018-02-23T04:24:59.961Z,94.60
2018-02-23T04:27:27.474Z,94.90
2018-02-23T04:29:54.969Z,94.80
2018-02-23T04:32:22.493Z,94.70
2018-02-23T04:34:49.989Z,95.00
2018-02-23T04:37:17.501Z,94.90
2018-02-23T04:39:45.001Z,94.90
2018-02-23T04:42:12.513Z,94.60
2018-02-23T04:44:40.000Z,94.70
2018-02-23T04:47:07.517Z,94.70
2018-02-23T04:49:35.008Z,95.00
2018-02-23T04:52:02.529Z,94.60
2018-02-23T04:54:30.030Z,94.80
2018-02-23T04:56:57.545Z,94.70
2018-02-23T04:59:25.902Z,94.60
2018-02-23T05:01:53.416Z,94.70
2018-02-23T05:04:20.906Z,94.90
2018-02-23T05:06:49.190Z,95.00
2018-02-23T05:09:17.453Z,94.90
2018-02-23T05:11:44.968Z,94.80
2018-02-23T05:14:12.456Z,95.00
2018-02-23T05:16:39.965Z,95.00
2018-02-23T05:19:07.455Z,95.10
2018-02-23T05:21:35.745Z,94.70
2018-02-23T05:24:03.287Z,94.60
2018-02-23T05:26:30.756Z,94.50
2018-02-23T05:28:58.248Z,94.30
2018-02-23T05:31:26.526Z,94.80
2018-02-23T05:33:54.028Z,94.50
2018-02-23T05:36:21.537Z,94.50
2018-02-23T05:38:49.034Z,94.20
2018-02-23T05:41:16.550Z,94.30
2018-02-23T05:43:44.050Z,94.30
2018-02-23T05:46:11.566Z,94.30
2018-02-23T05:48:39.820Z,94.40
2018-02-23T05:51:07.341Z,94.40
2018-02-23T05:53:34.843Z,94.40
2018-02-23T05:56:02.369Z,94.40
2018-02-23T05:58:30.629Z,94.40
2018-02-23T06:00:58.148Z,94.40
2018-02-23T06:03:25.650Z,94.30
2018-02-23T06:05:53.170Z,94.10
2018-02-23T06:08:21.428Z,94.10
2018-02-23T06:10:48.941Z,94.10
2018-02-23T06:13:16.467Z,94.10
2018-02-23T06:15:49.673Z,94.30
2018-02-23T06:18:22.789Z,94.30
2018-02-23T06:20:50.289Z,94.40
2018-02-23T06:23:17.804Z,94.40
2018-02-23T06:25:45.301Z,94.40
2018-02-23T06:28:13.583Z,94.40
2018-02-23T06:30:41.077Z,94.30
2018-02-23T06:33:10.561Z,94.40
2018-02-23T06:35:38.060Z,94.40
2018-02-23T06:38:06.336Z,94.60
2018-02-23T06:40:33.838Z,94.60
2018-02-23T06:43:01.352Z,94.60
2018-02-23T06:45:28.848Z,94.50
2018-02-23T06:47:56.364Z,94.70
2018-02-23T06:50:23.869Z,94.90
2018-02-23T06:52:51.381Z,94.70
2018-02-23T06:55:18.877Z,94.60
2018-02-23T06:57:46.394Z,95.30
2018-02-23T07:00:13.888Z,95.60
2018-02-23T07:02:41.414Z,96.00
2018-02-23T07:05:08.916Z,95.40
2018-02-23T07:07:37.201Z,94.80
2018-02-23T07:10:05.456Z,94.80
2018-02-23T07:12:32.964Z,94.80
2018-02-23T07:15:01.224Z,94.30
2018-02-23T07:17:28.746Z,94.20
2018-02-23T07:19:56.253Z,94.10
2018-02-23T07:22:23.768Z,93.60
2018-02-23T07:24:52.037Z,93.00
2018-02-23T07:27:19.578Z,93.00
2018-02-23T07:29:47.069Z,92.80
2018-02-23T07:32:14.588Z,92.30
2018-02-23T07:34:42.097Z,91.90
2018-02-23T07:37:09.622Z,91.40
2018-02-23T07:39:37.185Z,91.30
2018-02-23T07:42:05.472Z,90.80
2018-02-23T07:44:33.729Z,90.70
2018-02-23T07:47:01.217Z,90.70
2018-02-23T07:49:28.732Z,90.30
2018-02-23T07:51:56.228Z,90.20
2018-02-23T07:54:23.731Z,89.70
2018-02-23T07:56:51.989Z,89.70
2018-02-23T07:59:19.506Z,89.60
2018-02-23T08:01:47.761Z,87.80
2018-02-23T08:04:15.275Z,87.80
2018-02-23T08:06:42.846Z,87.80
2018-02-23T08:09:10.382Z,87.00
2018-02-23T08:11:37.886Z,87.10
2018-02-23T08:14:20.480Z,86.10
2018-02-23T08:16:48.755Z,85.30
2018-02-23T08:19:16.261Z,85.30
2018-02-23T08:21:44.519Z,85.10
2018-02-23T08:24:12.045Z,85.10
2018-02-23T08:26:39.545Z,84.00
2018-02-23T08:29:07.032Z,84.20
2018-02-23T08:31:34.540Z,84.00
2018-02-23T08:34:02.041Z,82.90
2018-02-23T08:36:29.548Z,82.80
2018-02-23T08:38:57.037Z,82.50
2018-02-23T08:41:25.324Z,80.90
2018-02-23T08:43:53.580Z,81.00
2018-02-23T08:46:21.115Z,81.00
2018-02-23T08:48:48.614Z,80.20
2018-02-23T08:51:16.120Z,80.20
2018-02-23T08:53:45.386Z,78.60
2018-02-23T08:56:12.904Z,78.50
2018-02-23T08:58:41.163Z,77.70
2018-02-23T09:01:08.676Z,77.60
2018-02-23T09:03:36.164Z,77.70
2018-02-23T09:06:03.681Z,77.70
2018-02-23T09:08:31.181Z,78.50
2018-02-23T09:10:59.471Z,77.30
2018-02-23T09:13:27.732Z,77.30
2018-02-23T09:15:55.224Z,77.30
2018-02-23T09:18:23.501Z,77.30
2018-02-23T09:20:50.990Z,77.10
2018-02-23T09:23:18.517Z,77.30
2018-02-23T09:25:46.012Z,76.70
2018-02-23T09:28:14.289Z,76.10
2018-02-23T09:30:41.794Z,76.10
2018-02-23T09:33:09.447Z,75.80
2018-02-23T09:35:53.507Z,75.90
2018-02-23T09:38:21.790Z,74.70
2018-02-23T09:40:49.280Z,74.70
2018-02-23T09:43:17.565Z,74.10
2018-02-23T09:45:49.032Z,74.10
2018-02-23T09:48:16.585Z,74.00
2018-02-23T09:50:44.839Z,72.30
2018-02-23T09:53:12.357Z,72.10
2018-02-23T09:55:40.612Z,71.90
2018-02-23T09:58:08.121Z,71.80
2018-02-23T10:00:41.850Z,71.70
2018-02-23T10:03:09.362Z,70.80
2018-02-23T10:05:36.860Z,70.90
2018-02-23T10:08:04.372Z,71.00
2018-02-23T10:10:32.632Z,69.70
2018-02-23T10:13:00.903Z,68.70
2018-02-23T10:15:28.407Z,68.70
2018-02-23T10:17:55.913Z,68.60
2018-02-23T10:20:23.409Z,68.00
2018-02-23T10:22:50.929Z,67.80
2018-02-23T10:25:19.187Z,66.60
2018-02-23T10:27:47.525Z,65.30
2018-02-23T10:30:15.790Z,64.60
2018-02-23T10:32:43.358Z,64.50
2018-02-23T10:35:10.829Z,65.20
2018-02-23T10:37:38.341Z,64.80
2018-02-23T10:40:05.828Z,64.70
2018-02-23T10:42:33.348Z,63.10
2018-02-23T10:45:00.837Z,62.60
2018-02-23T10:47:28.358Z,63.20
2018-02-23T10:49:56.611Z,62.30
2018-02-23T10:52:24.123Z,61.50
2018-02-23T10:54:52.382Z,60.30
2018-02-23T10:57:19.905Z,60.30
2018-02-23T10:59:47.396Z,60.30
2018-02-23T11:02:14.915Z,59.50
2018-02-23T11:04:42.434Z,58.70
2018-02-23T11:07:09.929Z,58.10
2018-02-23T11:09:37.454Z,58.40
2018-02-23T11:12:04.953Z,58.70
2018-02-23T11:14:32.484Z,58.70
2018-02-23T11:17:00.745Z,56.90
2018-02-23T11:19:28.260Z,56.90
2018-02-23T11:22:01.182Z,57.80
2018-02-23T11:24:28.709Z,56.70
2018-02-23T11:26:56.209Z,56.60
2018-02-23T11:29:23.729Z,56.10
2018-02-23T11:31:51.229Z,55.60
2018-02-23T11:34:18.747Z,55.80
2018-02-23T11:36:46.245Z,55.40
2018-02-23T11:39:14.538Z,55.40
2018-02-23T11:41:42.798Z,54.50
2018-02-23T11:44:10.308Z,54.50
2018-02-23T11:46:38.574Z,53.80
2018-02-23T11:49:06.096Z,53.80
2018-02-23T11:51:33.592Z,53.90
2018-02-23T11:54:01.105Z,54.10
2018-02-23T11:56:29.358Z,53.80
2018-02-23T11:58:56.895Z,53.80
2018-02-23T12:01:24.384Z,53.50
2018-02-23T12:03:51.896Z,52.80
2018-02-23T12:06:20.158Z,52.10
2018-02-23T12:08:47.681Z,52.10
2018-02-23T12:11:15.186Z,52.40
2018-02-23T12:13:42.704Z,52.30
2018-02-23T12:16:12.880Z,52.20
2018-02-23T12:18:40.388Z,52.20
2018-02-23T12:21:07.904Z,52.80
2018-02-23T12:23:35.425Z,51.70
2018-02-23T12:26:02.923Z,51.40
2018-02-23T12:28:30.433Z,50.90
2018-02-23T12:30:57.925Z,50.70
2018-02-23T12:33:25.442Z,50.80
2018-02-23T12:35:52.942Z,51.60
2018-02-23T12:38:20.437Z,51.20
2018-02-23T12:40:47.949Z,50.60
2018-02-23T12:43:15.440Z,51.10
2018-02-23T12:45:43.741Z,50.40
2018-02-23T12:48:11.242Z,50.10
2018-02-23T12:50:38.761Z,50.30
2018-02-23T12:53:06.254Z,50.60
2018-02-23T12:55:33.769Z,51.20
2018-02-23T12:58:02.033Z,52.30
2018-02-23T13:00:29.549Z,52.20
2018-02-23T13:02:57.040Z,51.80
2018-02-23T13:05:24.553Z,51.80
2018-02-23T13:07:52.048Z,52.40
2018-02-23T13:10:20.332Z,52.60
2018-02-23T13:12:48.589Z,53.40
2018-02-23T13:15:18.909Z,53.40
2018-02-23T13:17:46.406Z,52.70
2018-02-23T13:20:13.925Z,52.20
2018-02-23T13:22:41.412Z,52.40
2018-02-23T13:25:08.931Z,52.20
2018-02-23T13:27:36.432Z,52.30
2018-02-23T13:30:06.000Z,52.60
2018-02-23T13:32:33.497Z,52.40
2018-02-23T13:35:01.782Z,52.60
2018-02-23T13:37:30.049Z,52.80
2018-02-23T13:39:57.564Z,52.80
2018-02-23T13:42:26.921Z,52.80
2018-02-23T13:44:54.450Z,52.90
2018-02-23T13:47:21.944Z,52.50
2018-02-23T13:49:49.465Z,52.30
2018-02-23T13:52:17.733Z,52.80
2018-02-23T13:54:45.273Z,52.60
2018-02-23T13:57:12.805Z,52.30
2018-02-23T13:59:40.336Z,53.30
2018-02-23T14:02:07.842Z,52.70
2018-02-23T14:04:36.127Z,52.90
2018-02-23T14:07:09.259Z,52.80
2018-02-23T14:09:36.781Z,53.40
2018-02-23T14:12:05.069Z,53.20
2018-02-23T14:14:32.594Z,53.20
2018-02-23T14:17:00.092Z,53.10
2018-02-23T14:19:27.627Z,53.10
2018-02-23T14:21:55.124Z,53.50
2018-02-23T14:24:22.653Z,53.40
2018-02-23T14:26:50.978Z,53.80
2018-02-23T14:29:18.514Z,53.80
2018-02-23T14:31:46.020Z,53.50
2018-02-23T14:34:13.535Z,53.70
2018-02-23T14:36:41.037Z,53.80
2018-02-23T14:39:08.553Z,54.40
2018-02-23T14:41:36.057Z,54.20
2018-02-23T14:44:04.346Z,54.30
2018-02-23T14:46:32.608Z,54.20
2018-02-23T14:49:22.961Z,54.20
2018-02-23T14:51:50.458Z,54.80
2018-02-23T14:54:17.984Z,54.90
2018-02-23T14:56:46.255Z,54.80
2018-02-23T14:59:13.761Z,54.70
2018-02-23T15:01:41.280Z,54.90
2018-02-23T15:04:08.780Z,55.20
2018-02-23T15:06:38.068Z,56.20
2018-02-23T15:09:05.557Z,55.90
2018-02-23T15:11:33.078Z,55.90
2018-02-23T15:14:00.578Z,56.00
2018-02-23T15:16:28.110Z,55.30
2018-02-23T15:18:55.613Z,55.90
2018-02-23T15:21:23.129Z,55.80
2018-02-23T15:23:51.391Z,55.60
2018-02-23T15:26:18.922Z,55.60
2018-02-23T15:28:46.420Z,55.70
2018-02-23T15:31:25.765Z,55.50
2018-02-23T15:33:53.266Z,55.50
2018-02-23T15:36:28.482Z,55.70
2018-02-23T15:39:06.148Z,55.70
2018-02-23T15:41:33.665Z,55.80
2018-02-23T15:44:01.161Z,56.00
2018-02-23T15:46:28.688Z,55.80
2018-02-23T15:49:01.776Z,56.10
2018-02-23T15:51:34.922Z,56.10
2018-02-23T15:54:02.433Z,55.70
2018-02-23T15:56:29.954Z,55.90
2018-02-23T15:58:57.450Z,56.10
2018-02-23T16:01:24.971Z,55.90
2018-02-23T16:03:52.496Z,55.80
2018-02-23T16:06:20.772Z,55.90
2018-02-23T16:08:48.264Z,55.80
2018-02-23T16:11:16.541Z,55.90
2018-02-23T16:13:44.812Z,55.90
2018-02-23T16:16:13.115Z,56.70
2018-02-23T16:18:41.393Z,56.20
2018-02-23T16:21:08.919Z,56.20
2018-02-23T16:23:36.433Z,55.90
2018-02-23T16:26:03.947Z,56.30
2018-02-23T16:28:31.457Z,56.00
2018-02-23T16:30:58.989Z,55.70
2018-02-23T16:33:26.484Z,56.20
2018-02-23T16:35:54.008Z,56.30
2018-02-23T16:38:21.519Z,56.40
2018-02-23T16:40:49.032Z,56.70
2018-02-23T16:46:10.609Z,57.70
2018-02-23T16:48:38.116Z,57.60
2018-02-23T16:51:05.638Z,57.90
2018-02-23T16:53:33.130Z,58.30
2018-02-23T16:56:01.413Z,58.70
2018-02-23T16:58:29.677Z,59.70
2018-02-23T17:00:57.189Z,59.00
2018-02-23T17:03:24.688Z,59.20
2018-02-23T17:05:52.208Z,59.20
2018-02-23T17:08:19.701Z,59.60
2018-02-23T17:10:47.232Z,59.70
2018-02-23T17:13:14.738Z,59.60
2018-02-23T17:15:42.270Z,59.40
2018-02-23T17:18:09.774Z,59.60
2018-02-23T17:20:38.066Z,59.80
2018-02-23T17:23:06.320Z,59.80
2018-02-23T17:25:33.837Z,59.70
2018-02-23T17:28:01.332Z,60.00
2018-02-23T17:30:28.845Z,60.20
2018-02-23T17:32:56.339Z,60.20
2018-02-23T17:35:24.619Z,60.70
2018-02-23T17:37:52.881Z,60.20
2018-02-23T17:40:20.405Z,60.20
2018-02-23T17:42:47.901Z,60.60
2018-02-23T17:45:15.421Z,60.40
2018-02-23T17:47:42.916Z,60.60
2018-02-23T17:50:10.424Z,60.80
2018-02-23T17:52:37.921Z,60.70
2018-02-23T17:55:06.217Z,60.70
2018-02-23T17:57:34.487Z,61.10
2018-02-23T18:00:01.976Z,61.00
2018-02-23T18:02:30.261Z,61.70
2018-02-23T18:04:58.525Z,61.30
2018-02-23T18:07:26.046Z,61.30
2018-02-23T18:09:53.552Z,61.80
2018-02-23T18:12:21.076Z,62.10
2018-02-23T18:14:48.574Z,62.30
2018-02-23T18:17:16.094Z,62.30
2018-02-23T18:19:44.363Z,62.80
2018-02-23T18:22:11.885Z,62.80
2018-02-23T18:24:39.390Z,62.70
2018-02-23T18:27:06.917Z,63.10
2018-02-23T18:29:34.452Z,63.70
2018-02-23T18:32:02.000Z,63.80
2018-02-23T18:34:29.528Z,64.00
2018-02-23T18:36:57.064Z,64.40
2018-02-23T18:39:24.578Z,64.50
2018-02-23T18:41:52.105Z,64.50
2018-02-23T18:44:19.599Z,64.80
2018-02-23T18:46:48.870Z,65.10
2018-02-23T18:49:16.412Z,64.90
2018-02-23T18:51:44.669Z,65.30
2018-02-23T18:54:12.944Z,65.30
2018-02-23T18:56:40.441Z,65.30
2018-02-23T18:59:07.980Z,66.60
2018-02-23T19:01:35.487Z,66.10
2018-02-23T19:04:03.017Z,66.30
2018-02-23T19:06:30.524Z,67.00
2018-02-23T19:08:58.058Z,66.30
2018-02-23T19:11:25.564Z,66.50
2018-02-23T19:13:53.082Z,66.90
2018-02-23T19:16:20.592Z,66.70
2018-02-23T19:18:48.879Z,67.10
2018-02-23T19:21:16.383Z,67.00
2018-02-23T19:23:43.906Z,67.30
2018-02-23T19:26:12.215Z,67.80
2018-02-23T19:28:40.510Z,67.70
2018-02-23T19:31:08.089Z,67.70
2018-02-23T19:33:35.589Z,68.20
2018-02-23T19:36:03.112Z,68.30
2018-02-23T19:38:31.386Z,68.70
2018-02-23T19:40:59.769Z,68.90
2018-02-23T19:43:27.265Z,68.80
2018-02-23T19:45:55.549Z,69.30
2018-02-23T19:48:23.833Z,69.30
2018-02-23T19:50:52.130Z,69.90
2018-02-23T19:53:20.389Z,69.40
2018-02-23T19:55:47.914Z,69.30
2018-02-23T19:58:15.446Z,69.50
2018-02-23T20:00:42.974Z,69.70
2018-02-23T20:03:10.481Z,70.00
2018-02-23T20:05:38.017Z,70.20
2018-02-23T20:08:05.513Z,70.30
2018-02-23T20:10:33.040Z,70.40
2018-02-23T20:13:00.545Z,70.80
2018-02-23T20:15:28.046Z,71.00
2018-02-23T20:17:55.614Z,71.20
2018-02-23T20:20:23.103Z,71.40
2018-02-23T20:22:50.638Z,71.50
2018-02-23T20:25:18.150Z,71.70
2018-02-23T20:27:45.682Z,72.10
2018-02-23T20:30:13.185Z,72.10
2018-02-23T20:32:41.489Z,71.70
2018-02-23T20:35:09.014Z,71.70
2018-02-23T20:37:36.681Z,71.80
2018-02-23T20:40:04.279Z,71.60
2018-02-23T20:42:31.875Z,71.80
2018-02-23T20:44:59.400Z,71.90
2018-02-23T20:47:26.935Z,71.80
2018-02-23T20:49:54.513Z,72.10
2018-02-23T20:52:22.201Z,72.40
2018-02-23T20:54:49.742Z,72.80
2018-02-23T20:57:17.347Z,72.80
2018-02-23T20:59:44.902Z,73.20
2018-02-23T21:02:12.492Z,73.10
2018-02-23T21:04:40.054Z,73.00
2018-02-23T21:07:07.617Z,73.20
2018-02-23T21:09:35.190Z,73.60
2018-02-23T21:12:02.743Z,73.80
2018-02-23T21:14:30.288Z,73.80
2018-02-23T21:17:00.549Z,73.80
2018-02-23T21:19:28.096Z,73.70
2018-02-23T21:21:56.453Z,74.20
2018-02-23T21:24:24.978Z,74.00
2018-02-23T21:26:53.319Z,74.50
2018-02-23T21:29:20.863Z,74.50
2018-02-23T21:31:48.465Z,75.00
2018-02-23T21:34:16.050Z,75.10
2018-02-23T21:36:43.638Z,75.20
2018-02-23T21:39:11.171Z,75.30
2018-02-23T21:41:50.458Z,75.70
2018-02-23T21:44:20.034Z,75.80
2018-02-23T21:46:47.627Z,76.20
2018-02-23T21:49:15.153Z,76.20
2018-02-23T21:51:42.708Z,76.70
2018-02-23T21:54:11.075Z,76.60
2018-02-23T21:56:38.632Z,76.60
2018-02-23T21:59:06.172Z,76.40
2018-02-23T22:01:33.743Z,76.40
2018-02-23T22:04:01.268Z,76.70
2018-02-23T22:06:28.853Z,76.70
2018-02-23T22:08:57.152Z,76.70
2018-02-23T22:11:24.711Z,76.60
2018-02-23T22:13:52.999Z,76.90
2018-02-23T22:16:21.327Z,76.50
2018-02-23T22:18:48.894Z,76.40
2018-02-23T22:21:16.450Z,76.50
2018-02-23T22:23:44.748Z,77.10
2018-02-23T22:26:12.321Z,77.00
2018-02-23T22:28:39.854Z,77.30
2018-02-23T22:31:07.402Z,77.30
2018-02-23T22:33:34.949Z,77.60
2018-02-23T22:36:02.497Z,77.50
2018-02-23T22:38:30.829Z,77.30
2018-02-23T22:40:58.366Z,77.20
2018-02-23T22:43:25.934Z,77.40
2018-02-23T22:45:53.483Z,77.20
2018-02-23T22:48:21.018Z,77.00
2018-02-23T22:50:48.525Z,77.00
2018-02-23T22:53:16.849Z,77.00
2018-02-23T22:55:44.396Z,76.90
2018-02-23T22:58:11.932Z,77.00
2018-02-23T23:00:43.731Z,77.10
2018-02-23T23:03:12.085Z,77.40
2018-02-23T23:05:39.623Z,77.30
2018-02-23T23:08:07.165Z,77.50
2018-02-23T23:10:35.469Z,77.70
2018-02-23T23:13:03.044Z,77.50
2018-02-23T23:15:30.588Z,77.70
2018-02-23T23:17:58.915Z,77.40
2018-02-23T23:20:26.454Z,77.30
2018-02-23T23:22:54.760Z,77.30
2018-02-23T23:28:19.297Z,77.70
2018-02-23T23:30:46.825Z,77.30
2018-02-23T23:33:14.374Z,77.40
2018-02-23T23:35:41.907Z,77.40
2018-02-23T23:38:10.214Z,77.60
2018-02-23T23:40:37.745Z,77.60
2018-02-23T23:43:05.330Z,77.30
2018-02-23T23:45:33.627Z,77.60
2018-02-23T23:48:01.175Z,77.50
2018-02-23T23:50:28.714Z,77.40
2018-02-23T23:52:56.279Z,77.60
2018-02-23T23:55:23.814Z,77.20
2018-02-23T23:57:51.348Z,77.50
